Time;durP1;ratioP1;P1;durP2;ratioP2;P2;SDS_P1;SDS_P2;PMS_P1;PMS_P2;Temp;Humidity;BMP_temperature;BMP_pressure;BME280_temperature;BME280_humidity;BME280_pressure;Samples;Min_cycle;Max_cycle;Signal;HPM_P1;HPM_P2
2022/05/31 01:05:54;;;;;;;1.00;0.80;;;;;;;7.82;77.96;97546.00;5127288;28;20560;-46
2022/05/31 01:08:59;;;;;;;0.97;0.80;;;;;;;7.82;78.05;97550.41;6171845;28;20239;-51
2022/05/31 01:12:08;;;;;;;0.70;0.70;;;;;;;7.81;78.06;97544.31;6180550;28;20221;-46
2022/05/31 01:15:29;;;;;;;2.10;0.80;;;;;;;7.81;78.19;97551.38;6181131;28;20268;-45
2022/05/31 01:18:50;;;;;;;0.83;0.70;;;;;;;7.78;78.80;97548.03;6180520;28;20305;-46
2022/05/31 01:22:52;;;;;;;0.83;0.77;;;;;;;7.75;78.78;97544.78;6180997;28;20320;-45
2022/05/31 01:26:23;;;;;;;2.40;0.90;;;;;;;7.73;78.37;97541.41;6178996;28;20387;-45
2022/05/31 01:29:32;;;;;;;0.97;0.80;;;;;;;7.67;78.97;97547.94;6180298;28;20225;-45
2022/05/31 01:32:40;;;;;;;1.40;0.80;;;;;;;7.63;78.62;97540.38;6180965;28;20594;-48
2022/05/31 01:35:43;;;;;;;2.80;0.80;;;;;;;7.55;78.69;97542.72;6179804;28;20271;-47
2022/05/31 01:39:15;;;;;;;1.10;0.97;;;;;;;7.49;79.40;97538.72;6181600;28;20287;-46
2022/05/31 01:42:44;;;;;;;1.37;0.70;;;;;;;7.40;79.18;97542.81;6157205;28;20213;-46
2022/05/31 01:46:04;;;;;;;0.80;0.80;;;;;;;7.33;79.50;97540.75;6179614;28;20264;-45
2022/05/31 01:49:10;;;;;;;0.73;0.73;;;;;;;7.30;79.56;97538.31;6180675;28;20228;-49
2022/05/31 01:52:13;;;;;;;0.70;0.70;;;;;;;7.28;79.47;97538.47;6182921;28;20244;-45
2022/05/31 01:55:17;;;;;;;1.87;0.77;;;;;;;7.27;79.50;97547.28;6179193;28;20245;-50
2022/05/31 01:58:24;;;;;;;3.33;1.00;;;;;;;7.27;79.44;97544.66;6179124;28;20233;-46
2022/05/31 02:01:27;;;;;;;1.00;0.90;;;;;;;7.19;79.87;97552.19;6179068;28;20299;-48
2022/05/31 02:04:29;;;;;;;1.07;0.83;;;;;;;7.07;79.64;97560.06;6180266;28;20705;-45
2022/05/31 02:07:32;;;;;;;2.40;0.80;;;;;;;7.00;79.95;97557.84;6176922;28;20604;-47
2022/05/31 02:10:35;;;;;;;1.70;0.90;;;;;;;6.95;80.20;97559.13;6179671;28;20259;-45
2022/05/31 02:13:42;;;;;;;1.13;0.90;;;;;;;6.84;80.58;97567.72;6180736;28;20715;-48
2022/05/31 02:16:46;;;;;;;0.90;0.80;;;;;;;6.78;80.51;97572.53;6184806;28;20317;-46
2022/05/31 02:20:10;;;;;;;2.00;0.90;;;;;;;6.70;81.20;97578.28;6183755;28;20233;-46
2022/05/31 02:23:12;;;;;;;1.63;1.00;;;;;;;6.63;81.50;97574.38;6185418;28;20232;-45
2022/05/31 02:26:14;;;;;;;1.53;0.90;;;;;;;6.63;81.83;97584.88;6183648;28;20273;-46
2022/05/31 02:29:21;;;;;;;1.43;0.90;;;;;;;6.67;81.54;97583.75;6183987;28;20334;-50
2022/05/31 02:32:23;;;;;;;1.33;0.80;;;;;;;6.71;81.54;97587.81;6183487;28;20320;-47
2022/05/31 02:35:25;;;;;;;1.13;0.90;;;;;;;6.77;81.74;97595.31;6186269;28;20249;-47
2022/05/31 02:38:28;;;;;;;2.17;1.03;;;;;;;6.74;81.85;97600.75;6183740;28;20746;-48
2022/05/31 02:41:31;;;;;;;1.77;0.80;;;;;;;6.71;81.57;97594.84;6183053;28;20252;-48
2022/05/31 02:44:34;;;;;;;1.97;1.27;;;;;;;6.65;81.83;97596.94;6183806;28;20232;-48
2022/05/31 02:47:39;;;;;;;1.87;1.13;;;;;;;6.58;82.25;97595.69;6184735;28;20260;-49
2022/05/31 02:50:41;;;;;;;2.40;1.10;;;;;;;6.49;82.66;97587.56;6182773;28;21108;-49
2022/05/31 02:53:44;;;;;;;2.70;1.17;;;;;;;6.47;82.84;97589.44;6185461;28;20236;-45
2022/05/31 02:56:47;;;;;;;2.10;1.00;;;;;;;6.46;83.10;97586.00;6184952;28;20260;-47
2022/05/31 03:00:10;;;;;;;1.43;1.03;;;;;;;6.42;83.06;97579.25;6184364;28;22050;-47
2022/05/31 03:03:13;;;;;;;2.50;1.10;;;;;;;6.39;82.90;97583.88;6184301;28;20252;-47
2022/05/31 03:06:34;;;;;;;1.20;1.10;;;;;;;6.37;83.43;97583.13;6185510;28;20256;-51
2022/05/31 03:09:44;;;;;;;1.73;1.33;;;;;;;6.36;83.27;97586.69;6182362;28;20300;-49
2022/05/31 03:12:48;;;;;;;3.00;1.30;;;;;;;6.34;83.15;97583.31;6183144;28;20224;-51
2022/05/31 03:15:53;;;;;;;1.30;1.20;;;;;;;6.34;83.68;97581.53;6184136;28;20228;-51
2022/05/31 03:19:04;;;;;;;1.40;1.30;;;;;;;6.35;84.27;97585.84;6182948;28;20226;-49
2022/05/31 03:22:11;;;;;;;1.27;1.17;;;;;;;6.36;84.01;97586.69;6182430;28;20659;-45
2022/05/31 03:25:19;;;;;;;2.20;0.90;;;;;;;6.34;83.95;97591.19;6183682;28;20235;-45
2022/05/31 03:28:22;;;;;;;1.27;1.17;;;;;;;6.35;84.38;97592.84;6184882;28;20608;-44
2022/05/31 03:31:24;;;;;;;1.40;1.30;;;;;;;6.33;84.44;97587.72;6183230;28;20240;-46
2022/05/31 03:34:27;;;;;;;3.00;1.37;;;;;;;6.34;84.62;97586.78;6183549;28;20244;-45
2022/05/31 03:37:29;;;;;;;1.50;1.40;;;;;;;6.39;83.90;97591.75;6181761;28;20230;-44
2022/05/31 03:43:56;;;;;;;3.60;1.47;;;;;;;6.39;84.35;97594.34;6181651;28;20262;-44
2022/05/31 03:46:58;;;;;;;2.77;1.30;;;;;;;6.41;84.57;97593.28;6183196;28;20713;-45
2022/05/31 03:50:20;;;;;;;1.33;1.23;;;;;;;6.40;84.23;97591.63;6184062;28;20258;-44
2022/05/31 03:53:22;;;;;;;3.37;1.40;;;;;;;6.43;84.46;97596.66;6182177;28;20237;-44
2022/05/31 03:56:25;;;;;;;1.40;1.30;;;;;;;6.48;85.04;97599.00;6181224;28;20780;-44
2022/05/31 03:59:29;;;;;;;1.40;1.20;;;;;;;6.51;84.77;97590.91;6181307;28;20233;-45
2022/05/31 04:02:31;;;;;;;2.00;1.20;;;;;;;6.55;84.61;97593.25;6180560;28;20721;-44
2022/05/31 04:05:34;;;;;;;1.30;1.20;;;;;;;6.66;84.66;97596.00;6172586;28;20606;-45
2022/05/31 04:08:36;;;;;;;3.30;1.40;;;;;;;6.75;84.18;97596.34;6180604;28;20244;-44
2022/05/31 04:11:39;;;;;;;1.40;1.23;;;;;;;6.77;84.54;97586.59;6181744;28;20244;-45
2022/05/31 04:14:49;;;;;;;1.63;1.50;;;;;;;6.83;84.15;97587.00;6181341;28;20239;-45
2022/05/31 04:17:53;;;;;;;1.53;1.43;;;;;;;6.87;84.11;97587.66;6182970;28;20240;-45
2022/05/31 04:21:00;;;;;;;1.23;1.13;;;;;;;6.88;84.32;97581.47;6182581;28;20244;-44
2022/05/31 04:24:08;;;;;;;1.40;1.30;;;;;;;6.92;83.94;97591.66;6164514;28;20647;-44
2022/05/31 04:27:29;;;;;;;1.30;1.20;;;;;;;7.01;83.84;97585.78;6182373;28;20236;-44
2022/05/31 04:30:49;;;;;;;1.80;1.20;;;;;;;7.11;83.53;97596.47;6182104;28;20234;-45
2022/05/31 04:34:27;;;;;;;1.27;1.17;;;;;;;7.16;83.55;97589.16;6202988;28;20227;-48
2022/05/31 04:37:29;;;;;;;1.73;1.30;;;;;;;7.18;83.31;97589.06;6179696;28;20250;-45
2022/05/31 04:40:50;;;;;;;1.43;1.10;;;;;;;7.23;83.42;97600.06;6181102;28;20230;-45
2022/05/31 04:44:12;;;;;;;1.27;1.17;;;;;;;7.28;83.45;97596.19;6182639;28;20245;-46
2022/05/31 04:47:15;;;;;;;1.47;1.10;;;;;;;7.33;83.40;97607.22;6180199;28;20234;-45
2022/05/31 04:50:23;;;;;;;1.30;1.20;;;;;;;7.39;83.59;97600.69;6180249;28;20223;-45
2022/05/31 04:53:25;;;;;;;1.47;1.37;;;;;;;7.45;83.59;97609.94;6179747;28;20694;-44
2022/05/31 04:57:04;;;;;;;1.00;1.00;;;;;;;7.53;83.67;97611.09;6156293;28;20326;-46
2022/05/31 05:00:08;;;;;;;1.30;1.20;;;;;;;7.62;83.22;97606.97;6181046;28;20703;-48
2022/05/31 05:03:24;;;;;;;2.03;1.40;;;;;;;7.64;83.53;97595.44;6179255;28;20595;-45
2022/05/31 05:06:26;;;;;;;1.87;1.30;;;;;;;7.66;83.66;97593.53;6179889;28;20975;-49
2022/05/31 05:09:30;;;;;;;2.33;1.17;;;;;;;7.77;84.19;97596.25;6179756;28;20694;-46
2022/05/31 05:12:51;;;;;;;1.63;1.30;;;;;;;7.89;84.05;97594.53;6181138;28;20236;-50
2022/05/31 05:16:26;;;;;;;1.93;1.47;;;;;;;8.05;83.71;97600.41;6168453;28;20742;-48
2022/05/31 05:19:30;;;;;;;1.40;1.30;;;;;;;8.22;84.04;97598.34;6178864;28;20227;-45
2022/05/31 05:22:33;;;;;;;1.33;1.23;;;;;;;8.33;83.48;97596.66;6179737;28;20384;-45
2022/05/31 05:25:38;;;;;;;1.33;1.20;;;;;;;8.49;83.57;97602.47;6165297;28;20287;-46
2022/05/31 05:32:15;;;;;;;1.87;1.40;;;;;;;8.61;83.31;97602.50;6155493;28;20234;-50
2022/05/31 05:35:43;;;;;;;1.23;1.13;;;;;;;8.68;83.72;97596.72;6155510;28;20233;-47
2022/05/31 05:38:46;;;;;;;2.33;1.70;;;;;;;8.80;83.40;97595.78;6175797;28;20571;-47
2022/05/31 05:42:09;;;;;;;2.07;1.60;;;;;;;8.93;84.04;97602.75;6169821;28;20240;-44
2022/05/31 05:45:34;;;;;;;2.03;1.60;;;;;;;9.08;83.86;97602.47;6180287;28;20291;-46
2022/05/31 05:48:36;;;;;;;1.50;1.30;;;;;;;9.22;82.91;97604.03;6178110;28;20330;-45
2022/05/31 05:51:38;;;;;;;1.37;1.27;;;;;;;9.35;82.69;97607.41;6179759;28;20322;-46
2022/05/31 05:54:56;;;;;;;1.33;1.20;;;;;;;9.59;81.63;97602.88;6180136;28;20614;-47
2022/05/31 05:58:16;;;;;;;3.17;1.53;;;;;;;9.74;81.31;97608.78;6180271;28;20253;-50
2022/05/31 06:01:51;;;;;;;1.20;1.10;;;;;;;9.88;81.17;97623.50;6180396;28;20253;-46
2022/05/31 06:05:33;;;;;;;1.47;1.00;;;;;;;10.02;82.32;97617.97;6128940;28;20230;-46
2022/05/31 06:09:01;;;;;;;1.30;1.20;;;;;;;10.16;81.15;97625.66;6112451;28;20613;-45
2022/05/31 06:12:09;;;;;;;1.50;1.13;;;;;;;10.29;81.39;97618.44;6105267;29;20254;-47
2022/05/31 06:15:16;;;;;;;1.27;1.17;;;;;;;10.49;81.22;97618.63;6113346;28;20210;-45
2022/05/31 06:18:25;;;;;;;1.00;0.90;;;;;;;10.74;79.17;97620.97;6112624;28;20206;-45
2022/05/31 06:21:27;;;;;;;1.00;0.90;;;;;;;10.98;79.05;97620.78;6128288;28;20238;-47
2022/05/31 06:24:40;;;;;;;1.20;0.90;;;;;;;11.22;77.62;97612.59;6178687;28;20229;-46
2022/05/31 06:28:05;;;;;;;1.70;0.90;;;;;;;11.50;76.33;97611.91;6179130;28;20237;-46
2022/05/31 06:31:07;;;;;;;1.03;0.90;;;;;;;11.76;75.13;97605.28;6180502;28;20265;-46
2022/05/31 06:34:10;;;;;;;2.53;0.97;;;;;;;12.13;69.49;97610.84;6178839;28;20233;-49
2022/05/31 06:37:36;;;;;;;1.17;0.80;;;;;;;12.69;67.58;97606.78;6178693;28;20264;-45
2022/05/31 06:40:41;;;;;;;0.70;0.70;;;;;;;13.11;66.10;97599.41;6178258;28;20463;-46
2022/05/31 06:44:09;;;;;;;1.60;0.93;;;;;;;13.50;64.66;97595.72;6179589;28;20236;-49
2022/05/31 06:47:30;;;;;;;1.60;0.73;;;;;;;13.95;61.43;97595.03;6178322;28;20235;-46
2022/05/31 06:51:11;;;;;;;2.10;0.90;;;;;;;14.38;59.68;97594.38;6198929;28;20317;-51
2022/05/31 06:58:20;;;;;;;2.83;1.00;;;;;;;14.88;55.26;97578.81;6161032;28;20417;-45
2022/05/31 07:01:37;;;;;;;1.60;0.60;;;;;;;15.03;55.54;97579.13;6180038;28;20615;-46
2022/05/31 07:04:39;;;;;;;0.60;0.60;;;;;;;15.32;55.08;97586.81;6184701;28;20253;-49
2022/05/31 07:07:42;;;;;;;1.93;0.73;;;;;;;15.45;54.56;97573.97;6182147;28;20241;-49
2022/05/31 07:11:07;;;;;;;1.00;0.80;;;;;;;15.64;54.78;97565.81;6173359;28;20229;-51
2022/05/31 07:14:28;;;;;;;0.80;0.80;;;;;;;15.92;52.32;97571.78;6184171;28;20241;-51
2022/05/31 07:17:51;;;;;;;1.60;0.70;;;;;;;16.38;51.16;97558.94;6183966;28;20241;-49
2022/05/31 07:20:55;;;;;;;1.53;0.70;;;;;;;16.83;51.35;97566.56;6181578;28;20266;-50
2022/05/31 07:23:57;;;;;;;2.00;0.70;;;;;;;17.15;50.62;97557.75;6183085;28;20225;-52
2022/05/31 07:27:04;;;;;;;1.43;0.70;;;;;;;17.41;49.60;97553.06;6181800;28;20605;-51
2022/05/31 07:30:07;;;;;;;2.20;0.70;;;;;;;17.76;47.63;97551.88;6182569;28;20242;-50
2022/05/31 07:33:12;;;;;;;2.00;0.73;;;;;;;18.18;49.36;97550.69;6182013;28;20753;-45
2022/05/31 07:36:35;;;;;;;1.60;0.50;;;;;;;18.34;49.27;97546.13;6180857;28;20245;-45
2022/05/31 07:39:47;;;;;;;2.57;0.63;;;;;;;18.84;47.58;97544.84;6181639;28;20297;-45
2022/05/31 07:42:50;;;;;;;1.47;1.10;;;;;;;19.09;45.77;97546.31;6181643;28;20259;-45
2022/05/31 07:46:05;;;;;;;1.30;0.80;;;;;;;18.72;43.07;97549.75;6181652;28;20314;-45
2022/05/31 07:49:08;;;;;;;4.20;1.27;;;;;;;18.83;42.78;97553.88;6183238;28;20348;-45
2022/05/31 07:52:23;;;;;;;3.40;1.20;;;;;;;18.68;42.39;97547.59;6181506;28;20240;-45
2022/05/31 07:55:57;;;;;;;0.77;0.77;;;;;;;19.07;43.03;97542.97;6185986;28;20240;-47
2022/05/31 07:59:35;;;;;;;2.10;0.97;;;;;;;19.59;43.24;97527.97;6155549;28;20265;-46
2022/05/31 08:03:07;;;;;;;1.40;0.90;;;;;;;19.82;42.38;97531.41;6150183;28;20447;-45
2022/05/31 08:06:16;;;;;;;2.40;0.80;;;;;;;19.87;43.25;97532.50;6158332;28;20721;-47
2022/05/31 08:09:21;;;;;;;1.50;0.80;;;;;;;20.02;43.34;97531.69;6158855;28;20230;-46
2022/05/31 08:12:23;;;;;;;3.33;1.03;;;;;;;19.84;42.23;97532.88;6157790;28;20268;-45
2022/05/31 08:15:25;;;;;;;1.77;0.87;;;;;;;20.15;41.83;97535.38;6159969;28;20237;-45
2022/05/31 08:18:28;;;;;;;1.23;0.80;;;;;;;20.65;42.89;97532.88;6158175;28;20229;-46
2022/05/31 08:21:32;;;;;;;1.70;1.03;;;;;;;20.51;41.19;97531.91;6158813;28;20233;-46
2022/05/31 08:24:34;;;;;;;0.93;0.83;;;;;;;21.19;42.25;97519.78;6159363;28;20226;-48
2022/05/31 08:27:45;;;;;;;2.07;1.10;;;;;;;21.56;40.79;97521.34;6158275;28;20230;-45
2022/05/31 08:30:52;;;;;;;1.23;0.90;;;;;;;21.36;42.01;97523.88;6157625;28;20350;-48
2022/05/31 08:33:54;;;;;;;1.70;1.00;;;;;;;21.10;39.76;97524.44;6158700;28;20280;-46
2022/05/31 08:36:57;;;;;;;1.40;0.90;;;;;;;21.60;41.03;97520.72;6158208;28;20222;-48
2022/05/31 08:39:59;;;;;;;1.43;0.90;;;;;;;21.85;39.69;97509.53;6158245;28;20241;-46
2022/05/31 08:43:07;;;;;;;3.90;1.50;;;;;;;21.95;39.50;97508.13;6157990;28;20762;-49
2022/05/31 08:46:19;;;;;;;3.37;1.30;;;;;;;21.52;40.63;97510.16;6158280;28;20636;-47
2022/05/31 08:53:06;;;;;;;3.43;1.20;;;;;;;22.21;38.43;97503.94;6158119;28;20241;-47
2022/05/31 08:59:47;;;;;;;1.77;1.03;;;;;;;22.33;38.45;97505.03;6156130;28;20234;-45
2022/05/31 09:03:30;;;;;;;2.30;0.83;;;;;;;22.89;36.62;97510.97;6157359;28;20230;-50
2022/05/31 09:07:02;;;;;;;2.00;1.10;;;;;;;22.83;38.63;97506.44;6180812;28;20233;-46
2022/05/31 09:10:13;;;;;;;1.77;1.20;;;;;;;23.12;37.57;97505.22;6181083;28;20324;-46
2022/05/31 09:13:19;;;;;;;1.00;0.90;;;;;;;23.08;38.43;97510.16;6181069;28;20807;-45
2022/05/31 09:16:49;;;;;;;1.93;1.10;;;;;;;23.50;36.44;97510.81;6181530;28;20630;-47
2022/05/31 09:20:13;;;;;;;2.47;1.00;;;;;;;23.19;38.71;97506.84;6180970;28;20664;-48
2022/05/31 09:23:23;;;;;;;3.87;1.10;;;;;;;23.44;37.66;97511.63;6180238;28;20242;-47
2022/05/31 09:26:35;;;;;;;1.30;0.90;;;;;;;23.99;36.90;97507.59;6181002;28;20240;-47
2022/05/31 09:30:17;;;;;;;1.63;1.07;;;;;;;24.02;36.11;97517.97;6180809;28;20331;-46
2022/05/31 09:33:33;;;;;;;1.20;1.10;;;;;;;24.25;36.88;97515.66;6177133;28;20666;-46
2022/05/31 09:36:58;;;;;;;0.80;0.80;;;;;;;24.77;35.12;97505.59;6157853;28;20292;-46
2022/05/31 09:40:34;;;;;;;1.23;0.93;;;;;;;25.30;36.45;97514.19;6156909;28;20240;-47
2022/05/31 09:43:48;;;;;;;1.63;0.80;;;;;;;25.76;32.07;97512.97;6156935;28;20293;-49
2022/05/31 09:47:00;;;;;;;1.30;1.00;;;;;;;25.36;33.66;97512.47;6157387;28;20233;-49
2022/05/31 09:50:03;;;;;;;2.30;0.97;;;;;;;24.65;34.13;97518.16;6156718;28;20226;-47
2022/05/31 09:57:06;;;;;;;2.38;0.90;;;;;;;24.93;33.99;97507.84;6156772;28;20226;-51
2022/05/31 10:00:17;;;;;;;1.05;0.80;;;;;;;24.81;32.40;97497.91;6164699;28;20269;-50
2022/05/31 10:03:44;;;;;;;1.15;0.90;;;;;;;25.32;33.64;97501.31;6169289;28;20225;-46
2022/05/31 10:06:55;;;;;;;2.17;0.80;;;;;;;24.95;33.41;97513.84;6181713;28;20236;-51
2022/05/31 10:10:07;;;;;;;1.23;0.90;;;;;;;24.58;33.01;97501.16;6181308;28;20331;-47
2022/05/31 10:13:09;;;;;;;1.00;0.70;;;;;;;25.34;33.38;97490.28;6179538;28;20320;-47
2022/05/31 10:16:23;;;;;;;1.92;0.70;;;;;;;25.34;31.71;97493.81;6180514;28;20708;-48
2022/05/31 10:19:28;;;;;;;1.25;0.88;;;;;;;25.50;32.89;97497.81;6179476;28;20328;-51
2022/05/31 10:22:31;;;;;;;0.80;0.80;;;;;;;25.20;32.68;97486.84;6180283;28;20903;-48
2022/05/31 10:25:56;;;;;;;2.15;1.10;;;;;;;24.92;33.17;97489.97;6179441;28;20241;-53
2022/05/31 10:29:06;;;;;;;1.05;0.98;;;;;;;25.09;34.59;97465.94;6179713;28;20241;-49
2022/05/31 10:32:46;;;;;;;1.27;0.85;;;;;;;26.26;34.07;97473.06;6182100;28;20304;-46
2022/05/31 10:36:08;;;;;;;1.35;0.93;;;;;;;26.57;31.36;97466.66;6181896;28;20285;-49
2022/05/31 10:39:11;;;;;;;2.15;0.90;;;;;;;27.15;31.59;97469.53;6185252;28;20280;-52
2022/05/31 10:42:14;;;;;;;3.58;0.90;;;;;;;26.68;31.07;97457.75;6182409;28;20311;-49
2022/05/31 10:45:23;;;;;;;1.45;1.10;;;;;;;26.81;30.70;97456.72;6185237;28;20232;-48
2022/05/31 10:48:26;;;;;;;3.03;0.98;;;;;;;26.84;31.85;97448.16;6184368;28;20604;-53
2022/05/31 10:52:04;;;;;;;1.92;1.02;;;;;;;27.12;30.95;97453.75;6183094;28;20268;-50
2022/05/31 10:55:33;;;;;;;1.25;0.85;;;;;;;26.90;31.29;97465.34;6177532;28;20264;-48
2022/05/31 10:59:14;;;;;;;1.67;1.10;;;;;;;26.16;31.71;97448.44;6183646;28;20710;-48
2022/05/31 11:02:40;;;;;;;1.15;0.80;;;;;;;27.02;31.25;97450.81;6188631;28;20256;-49
2022/05/31 11:06:12;;;;;;;0.90;0.77;;;;;;;27.30;31.62;97457.44;6181671;28;20241;-51
2022/05/31 11:13:08;;;;;;;0.82;0.70;;;;;;;28.54;28.69;97443.34;6181407;28;20628;-52
2022/05/31 11:16:19;;;;;;;0.93;0.82;;;;;;;28.73;28.13;97443.94;6181154;28;20237;-49
2022/05/31 11:19:29;;;;;;;1.05;0.80;;;;;;;29.22;28.11;97444.25;6180495;28;20233;-50
2022/05/31 11:22:57;;;;;;;2.58;1.10;;;;;;;29.17;27.36;97436.00;6180682;28;20244;-52
2022/05/31 11:26:24;;;;;;;1.33;1.23;;;;;;;28.81;28.05;97438.16;6170023;28;20350;-54
2022/05/31 11:30:02;;;;;;;1.02;0.80;;;;;;;28.94;29.04;97443.28;6179780;28;20327;-52
2022/05/31 11:33:29;;;;;;;1.23;1.00;;;;;;;29.43;28.70;97426.41;6180253;28;20256;-49
2022/05/31 11:37:12;;;;;;;0.77;0.77;;;;;;;29.95;28.72;97427.69;6181051;28;20272;-52
2022/05/31 11:40:15;;;;;;;1.00;0.80;;;;;;;29.60;27.71;97421.75;6180724;28;20341;-52
2022/05/31 11:43:41;;;;;;;2.45;1.00;;;;;;;28.71;29.23;97421.63;6182825;28;20279;-49
2022/05/31 11:47:04;;;;;;;2.03;1.00;;;;;;;28.04;29.86;97424.13;6181870;28;20319;-53
2022/05/31 11:50:22;;;;;;;1.23;1.00;;;;;;;28.37;29.28;97425.34;6182022;28;20515;-49
2022/05/31 11:53:49;;;;;;;1.15;1.00;;;;;;;28.95;29.60;97411.47;6183998;28;20283;-51
2022/05/31 11:57:31;;;;;;;2.25;1.20;;;;;;;29.61;27.42;97412.50;6183013;28;20237;-50
2022/05/31 12:00:42;;;;;;;0.77;0.68;;;;;;;29.50;27.96;97410.72;6183493;28;20360;-54
2022/05/31 12:04:01;;;;;;;0.73;0.73;;;;;;;29.63;27.80;97415.81;6182535;28;20245;-51
2022/05/31 12:07:12;;;;;;;2.10;0.70;;;;;;;29.07;27.96;97405.94;6184060;28;20252;-50
2022/05/31 12:10:21;;;;;;;1.55;0.90;;;;;;;28.22;28.49;97407.69;6182631;28;20408;-49
2022/05/31 12:13:25;;;;;;;1.75;0.98;;;;;;;27.79;29.56;97399.19;6182821;28;20593;-51
2022/05/31 12:16:28;;;;;;;1.00;0.90;;;;;;;28.17;28.97;97404.88;6182913;28;20233;-53
2022/05/31 12:19:41;;;;;;;1.58;1.10;;;;;;;28.12;29.35;97402.03;6166421;28;20252;-52
2022/05/31 12:22:57;;;;;;;0.80;0.70;;;;;;;29.33;28.92;97392.50;6183048;28;20280;-53
2022/05/31 12:26:02;;;;;;;0.70;0.70;;;;;;;29.08;28.14;97394.00;6181896;28;20237;-53
2022/05/31 12:29:04;;;;;;;0.80;0.80;;;;;;;29.50;27.71;97391.69;6182841;28;20609;-53
2022/05/31 12:32:29;;;;;;;1.60;0.90;;;;;;;29.81;25.94;97380.13;6181111;28;20662;-51
2022/05/31 12:35:31;;;;;;;1.48;0.57;;;;;;;29.88;27.72;97390.81;6182460;28;20237;-52
2022/05/31 12:38:55;;;;;;;1.73;0.80;;;;;;;29.48;26.19;97378.31;6182209;28;20656;-53
2022/05/31 12:41:59;;;;;;;2.30;0.85;;;;;;;29.59;27.03;97373.84;6182169;28;20574;-50
2022/05/31 12:45:33;;;;;;;1.60;0.88;;;;;;;29.79;25.73;97376.00;6182888;28;20363;-51
2022/05/31 12:48:51;;;;;;;1.13;0.68;;;;;;;30.03;26.37;97369.28;6181467;28;20232;-51
2022/05/31 12:52:08;;;;;;;1.52;0.80;;;;;;;30.37;25.21;97365.28;6182031;28;20222;-51
2022/05/31 12:55:33;;;;;;;2.05;0.80;;;;;;;30.42;25.79;97365.34;6180874;28;20273;-52
2022/05/31 12:58:44;;;;;;;1.38;0.68;;;;;;;30.80;25.80;97361.63;6181277;28;20225;-53
2022/05/31 13:01:59;;;;;;;1.35;0.80;;;;;;;30.93;24.01;97365.00;6181920;28;20252;-54
2022/05/31 13:05:08;;;;;;;0.60;0.60;;;;;;;29.59;26.03;97363.81;6180688;28;20529;-53
2022/05/31 13:08:22;;;;;;;1.95;0.65;;;;;;;30.13;25.76;97357.69;6181648;28;20260;-52
2022/05/31 13:21:33;;;;;;;2.92;0.77;;;;;;;30.67;25.86;97345.69;6181623;28;20412;-53
2022/05/31 13:25:02;;;;;;;2.10;0.80;;;;;;;31.04;24.78;97342.19;6180567;28;20704;-53
2022/05/31 13:28:04;;;;;;;1.75;0.70;;;;;;;31.42;25.11;97341.91;6181432;28;20600;-51
2022/05/31 13:31:13;;;;;;;1.27;0.75;;;;;;;31.18;23.95;97336.03;6181193;28;20260;-53
2022/05/31 13:34:28;;;;;;;0.77;0.70;;;;;;;30.45;24.89;97317.69;6180577;28;20240;-50
2022/05/31 13:37:30;;;;;;;1.75;0.63;;;;;;;31.42;25.36;97338.38;6181595;28;20245;-51
2022/05/31 13:40:36;;;;;;;0.52;0.52;;;;;;;30.95;25.37;97317.28;6179710;28;20241;-54
2022/05/31 13:43:43;;;;;;;1.13;0.80;;;;;;;31.54;24.90;97312.47;6182074;28;20264;-54
2022/05/31 13:46:47;;;;;;;0.77;0.60;;;;;;;32.48;24.24;97314.16;6180426;28;20252;-52
2022/05/31 13:49:50;;;;;;;1.55;0.60;;;;;;;32.30;23.76;97308.41;6179557;28;20700;-53
2022/05/31 13:52:52;;;;;;;0.80;0.70;;;;;;;32.38;23.36;97307.88;6180370;28;20593;-51
2022/05/31 13:55:57;;;;;;;1.30;0.80;;;;;;;33.17;23.11;97301.84;6180695;28;20575;-53
2022/05/31 13:58:59;;;;;;;2.22;0.73;;;;;;;33.66;22.35;97297.34;6181358;28;20240;-52
2022/05/31 14:02:03;;;;;;;2.05;0.73;;;;;;;34.40;21.05;97301.91;6179866;28;20232;-52
2022/05/31 15:04:49;;;;;;;0.60;0.60;;;;;;;42.75;13.40;97245.25;5810432;28;20706;-53
2022/05/31 15:08:03;;;;;;;0.70;0.70;;;;;;;42.95;13.35;97232.50;6176346;28;20261;-51
2022/05/31 15:21:11;;;;;;;1.35;0.80;;;;;;;41.01;15.33;97213.44;6177488;28;20741;-52
2022/05/31 15:24:22;;;;;;;1.50;0.93;;;;;;;42.13;14.28;97209.28;6184331;28;20240;-52
2022/05/31 15:27:33;;;;;;;0.80;0.70;;;;;;;42.65;14.49;97215.16;6183584;28;20303;-50
2022/05/31 15:30:36;;;;;;;2.03;0.65;;;;;;;42.13;14.86;97210.06;6183724;28;20229;-53
2022/05/31 15:33:58;;;;;;;1.25;0.80;;;;;;;42.93;13.79;97218.13;6184279;28;20746;-51
2022/05/31 15:37:02;;;;;;;0.90;0.65;;;;;;;42.22;14.16;97208.06;6183355;28;20315;-53
2022/05/31 15:40:06;;;;;;;1.02;0.80;;;;;;;41.89;14.58;97221.00;6183721;28;20331;-52
2022/05/31 15:43:09;;;;;;;1.75;0.90;;;;;;;41.73;13.96;97214.44;6183884;28;20236;-51
2022/05/31 15:46:12;;;;;;;1.25;0.80;;;;;;;41.57;14.48;97211.44;6184118;28;20233;-52
2022/05/31 15:49:15;;;;;;;1.73;0.82;;;;;;;42.43;13.92;97204.47;6183322;28;20233;-51
2022/05/31 15:52:21;;;;;;;1.00;0.90;;;;;;;41.73;14.73;97201.38;6183301;28;20243;-53
2022/05/31 15:55:23;;;;;;;0.52;0.52;;;;;;;40.69;16.24;97205.69;6169018;28;20237;-50
2022/05/31 15:58:26;;;;;;;1.42;0.95;;;;;;;40.89;15.44;97196.72;6170589;28;20307;-53
2022/05/31 16:01:28;;;;;;;1.92;0.82;;;;;;;40.99;15.16;97195.53;6174388;28;20242;-53
2022/05/31 16:04:31;;;;;;;1.50;0.80;;;;;;;40.96;16.58;97199.78;6135465;28;20229;-53
2022/05/31 16:07:41;;;;;;;0.80;0.80;;;;;;;40.78;15.47;97190.72;6183162;28;20721;-53
2022/05/31 16:10:43;;;;;;;1.85;0.82;;;;;;;41.43;15.04;97186.69;6183074;28;20569;-54
2022/05/31 16:13:46;;;;;;;3.85;0.88;;;;;;;41.10;16.08;97191.25;6183506;28;20233;-52
2022/05/31 16:16:49;;;;;;;0.80;0.70;;;;;;;40.78;16.34;97187.13;6183032;28;20371;-54
2022/05/31 16:19:52;;;;;;;1.10;1.00;;;;;;;41.04;17.22;97184.25;6182711;28;20256;-53
2022/05/31 16:22:56;;;;;;;1.88;0.90;;;;;;;40.37;17.66;97182.97;6181847;28;20610;-53
2022/05/31 16:25:58;;;;;;;1.30;0.70;;;;;;;40.26;18.18;97184.41;6182517;28;20243;-52
2022/05/31 16:29:02;;;;;;;2.05;1.00;;;;;;;36.84;20.80;97175.25;6181343;28;20244;-53
2022/05/31 16:32:09;;;;;;;1.02;0.82;;;;;;;34.35;25.46;97172.31;6181782;28;20228;-50
2022/05/31 16:35:13;;;;;;;1.15;0.65;;;;;;;32.84;27.77;97178.31;6180563;28;20280;-50
2022/05/31 16:41:39;;;;;;;1.30;0.90;;;;;;;28.42;34.76;97171.06;6180337;28;20233;-52
2022/05/31 16:44:44;;;;;;;1.42;0.98;;;;;;;26.99;35.88;97174.97;6180575;28;20260;-48
2022/05/31 16:47:47;;;;;;;0.77;0.77;;;;;;;26.47;36.63;97174.06;6161249;28;20349;-49
2022/05/31 16:50:50;;;;;;;2.03;1.17;;;;;;;25.47;38.87;97171.25;6174402;28;20389;-53
2022/05/31 16:54:16;;;;;;;0.77;0.73;;;;;;;25.04;41.55;97173.31;6181901;28;20239;-52
2022/05/31 16:57:18;;;;;;;1.30;0.80;;;;;;;24.58;42.09;97159.28;6179639;28;20372;-50
2022/05/31 17:00:22;;;;;;;2.33;1.20;;;;;;;24.23;43.69;97160.88;6180250;28;20283;-48
2022/05/31 17:03:27;;;;;;;1.58;1.08;;;;;;;23.89;44.57;97168.41;6181000;28;20701;-52
2022/05/31 17:16:34;;;;;;;1.67;0.93;;;;;;;22.71;47.61;97171.72;6181336;28;20223;-52
2022/05/31 17:19:37;;;;;;;2.13;0.87;;;;;;;22.51;49.51;97181.69;6180680;28;20319;-47
2022/05/31 17:22:40;;;;;;;1.27;1.17;;;;;;;22.47;49.58;97175.91;6180696;28;20243;-48
2022/05/31 17:25:45;;;;;;;1.13;0.87;;;;;;;22.38;49.69;97171.78;6181126;28;20395;-48
2022/05/31 17:28:55;;;;;;;1.23;1.00;;;;;;;22.12;50.72;97177.22;6180287;28;20244;-48
2022/05/31 17:31:57;;;;;;;1.10;1.00;;;;;;;21.83;51.51;97178.44;6180893;28;20892;-47
2022/05/31 17:34:59;;;;;;;1.67;1.07;;;;;;;21.60;52.07;97179.63;6180704;28;20243;-49
2022/05/31 17:38:01;;;;;;;1.77;1.10;;;;;;;21.40;52.41;97183.31;6181230;28;20243;-52
2022/05/31 17:41:17;;;;;;;3.07;1.20;;;;;;;21.12;53.66;97189.63;6180479;28;20662;-48
2022/05/31 17:44:20;;;;;;;1.17;0.80;;;;;;;21.00;54.44;97183.16;6180184;28;20246;-47
2022/05/31 17:47:22;;;;;;;3.43;1.10;;;;;;;20.61;55.73;97184.66;6181236;28;20279;-49
2022/05/31 17:50:24;;;;;;;0.83;0.80;;;;;;;20.62;55.81;97180.13;6179844;28;20225;-50
2022/05/31 17:53:26;;;;;;;1.30;0.97;;;;;;;20.63;55.27;97181.78;6180626;28;20232;-46
2022/05/31 17:56:29;;;;;;;1.07;1.00;;;;;;;20.50;56.13;97185.19;6181331;28;20232;-52
2022/05/31 17:59:33;;;;;;;3.03;1.20;;;;;;;20.29;56.73;97185.25;6181154;28;20272;-47
2022/05/31 18:02:35;;;;;;;1.27;1.00;;;;;;;20.06;57.65;97182.84;6180130;28;20263;-49
2022/05/31 18:05:38;;;;;;;0.87;0.83;;;;;;;19.93;58.01;97187.25;6179950;28;20224;-48
2022/05/31 18:08:40;;;;;;;1.30;1.00;;;;;;;19.78;58.42;97200.72;6181891;28;20694;-48